createdAt,value
2022-07-29T00:01:44.989Z,0.60
2022-07-29T00:04:14.494Z,0.50
2022-07-29T00:06:44.841Z,0.70
2022-07-29T00:09:16.257Z,0.55
2022-07-29T00:11:46.109Z,0.80
2022-07-29T00:14:15.091Z,0.50
2022-07-29T00:16:44.679Z,0.47
2022-07-29T00:19:14.214Z,0.68
2022-07-29T00:21:42.652Z,0.80
2022-07-29T00:24:12.572Z,0.77
2022-07-29T00:26:42.008Z,0.60
2022-07-29T00:29:33.672Z,0.45
2022-07-29T00:31:59.303Z,0.95
2022-07-29T00:34:46.316Z,0.73
2022-07-29T00:37:18.587Z,0.70
2022-07-29T00:39:48.626Z,0.90
2022-07-29T00:42:18.368Z,0.85
2022-07-29T00:44:49.312Z,0.73
2022-07-29T00:47:18.706Z,0.55
2022-07-29T00:49:47.094Z,0.68
2022-07-29T00:52:17.169Z,0.65
2022-07-29T00:54:45.897Z,0.88
2022-07-29T00:57:14.991Z,0.57
2022-07-29T00:59:43.662Z,0.73
2022-07-29T01:02:12.208Z,1.05
2022-07-29T01:04:41.761Z,1.15
2022-07-29T01:07:12.148Z,1.40
2022-07-29T01:09:46.654Z,1.27
2022-07-29T01:12:18.707Z,2.40
2022-07-29T01:14:47.958Z,1.88
2022-07-29T01:17:20.177Z,1.83
2022-07-29T01:19:55.577Z,2.30
2022-07-29T01:22:27.292Z,2.53
2022-07-29T01:25:14.246Z,2.15
2022-07-29T01:28:11.686Z,2.10
2022-07-29T01:30:40.823Z,1.60
2022-07-29T01:33:33.434Z,2.60
2022-07-29T01:36:03.511Z,1.67
2022-07-29T01:38:32.365Z,1.92
2022-07-29T01:41:15.126Z,1.83
2022-07-29T01:43:48.495Z,2.17
2022-07-29T01:46:19.842Z,1.50
2022-07-29T01:48:51.042Z,1.80
2022-07-29T01:51:23.570Z,1.38
2022-07-29T01:54:12.811Z,1.13
2022-07-29T01:56:44.929Z,1.50
2022-07-29T01:59:13.839Z,1.55
2022-07-29T02:01:44.798Z,1.17
2022-07-29T02:04:26.694Z,1.65
2022-07-29T02:09:28.625Z,1.35
2022-07-29T02:11:58.046Z,1.35
2022-07-29T02:14:28.246Z,1.17
2022-07-29T02:16:59.248Z,1.35
2022-07-29T02:19:28.465Z,1.52
2022-07-29T02:21:57.829Z,1.35
2022-07-29T02:24:27.941Z,1.40
2022-07-29T02:26:58.309Z,1.23
2022-07-29T02:29:29.103Z,1.00
2022-07-29T02:31:59.041Z,1.25
2022-07-29T02:34:28.125Z,1.50
2022-07-29T02:36:57.761Z,1.88
2022-07-29T02:39:28.702Z,1.17
2022-07-29T02:41:59.397Z,1.25
2022-07-29T02:44:34.162Z,1.05
2022-07-29T02:47:06.508Z,1.23
2022-07-29T02:49:53.945Z,1.33
2022-07-29T02:52:30.768Z,1.17
2022-07-29T02:55:00.566Z,0.82
2022-07-29T02:57:53.827Z,0.93
2022-07-29T03:00:26.627Z,0.70
2022-07-29T03:03:11.334Z,0.60
2022-07-29T03:05:40.678Z,0.70
2022-07-29T03:08:11.487Z,0.70
2022-07-29T03:10:41.903Z,0.70
2022-07-29T03:13:13.344Z,1.60
2022-07-29T03:15:47.606Z,0.85
2022-07-29T03:18:17.786Z,0.70
2022-07-29T03:20:47.689Z,0.68
2022-07-29T03:23:24.996Z,0.57
2022-07-29T03:25:56.880Z,0.50
2022-07-29T03:28:26.962Z,0.65
2022-07-29T03:30:55.978Z,0.93
2022-07-29T03:33:24.424Z,0.47
2022-07-29T03:35:53.550Z,1.42
2022-07-29T03:38:25.875Z,0.52
2022-07-29T03:40:58.063Z,0.60
2022-07-29T03:43:28.346Z,0.80
2022-07-29T03:45:58.504Z,0.60
2022-07-29T03:48:27.732Z,1.08
2022-07-29T03:50:56.128Z,0.85
2022-07-29T03:53:25.723Z,0.90
2022-07-29T03:55:57.285Z,0.80
2022-07-29T03:58:28.409Z,0.50
2022-07-29T04:00:58.741Z,0.60
2022-07-29T04:03:37.055Z,0.73
2022-07-29T04:06:08.475Z,0.75
2022-07-29T04:08:37.655Z,0.63
2022-07-29T04:11:06.695Z,0.50
2022-07-29T04:13:36.049Z,0.88
2022-07-29T04:16:05.736Z,0.43
2022-07-29T04:18:36.547Z,1.30
2022-07-29T04:21:06.174Z,0.60
2022-07-29T04:23:34.565Z,0.80
2022-07-29T04:26:04.105Z,0.55
2022-07-29T04:28:34.693Z,0.70
2022-07-29T04:31:04.780Z,0.60
2022-07-29T04:33:33.133Z,0.93
2022-07-29T04:36:02.733Z,0.68
2022-07-29T04:38:33.258Z,1.55
2022-07-29T04:41:01.879Z,0.80
2022-07-29T04:43:31.410Z,0.90
2022-07-29T04:46:08.222Z,1.08
2022-07-29T04:48:36.629Z,1.20
2022-07-29T04:51:05.378Z,0.50
2022-07-29T04:53:37.566Z,0.80
2022-07-29T04:56:06.788Z,0.75
2022-07-29T04:58:37.230Z,0.70
2022-07-29T05:01:05.960Z,0.70
2022-07-29T05:03:35.994Z,1.13
2022-07-29T05:06:08.893Z,0.70
2022-07-29T05:08:39.984Z,1.00
2022-07-29T05:11:12.970Z,1.25
2022-07-29T05:13:45.482Z,0.80
2022-07-29T05:16:16.913Z,1.15
2022-07-29T05:18:45.831Z,0.90
2022-07-29T05:21:14.576Z,1.33
2022-07-29T05:23:43.969Z,1.20
2022-07-29T05:26:14.179Z,1.17
2022-07-29T05:28:45.632Z,2.25
2022-07-29T05:31:15.818Z,1.40
2022-07-29T05:33:44.692Z,1.08
2022-07-29T05:36:17.118Z,1.35
2022-07-29T05:38:47.105Z,1.10
2022-07-29T05:41:17.572Z,0.98
2022-07-29T05:43:46.131Z,1.27
2022-07-29T05:46:15.225Z,0.88
2022-07-29T05:48:43.890Z,1.10
2022-07-29T05:51:12.717Z,1.25
2022-07-29T05:53:42.194Z,0.93
2022-07-29T05:56:12.427Z,1.67
2022-07-29T05:58:41.800Z,1.40
2022-07-29T06:01:11.015Z,1.40
2022-07-29T06:03:45.253Z,1.45
2022-07-29T06:06:16.034Z,1.58
2022-07-29T06:08:46.212Z,2.05
2022-07-29T06:11:14.580Z,1.55
2022-07-29T06:13:43.463Z,2.10
2022-07-29T06:16:11.863Z,1.50
2022-07-29T06:18:45.335Z,2.20
2022-07-29T06:21:14.099Z,1.40
2022-07-29T06:23:42.599Z,1.98
2022-07-29T06:26:12.760Z,1.50
2022-07-29T06:28:41.490Z,1.92
2022-07-29T06:31:11.525Z,2.15
2022-07-29T06:33:43.148Z,1.92
2022-07-29T06:36:12.030Z,2.30
2022-07-29T06:38:49.179Z,2.05
2022-07-29T06:41:21.473Z,1.90
2022-07-29T06:43:55.236Z,1.80
2022-07-29T06:46:25.784Z,2.33
2022-07-29T06:48:56.202Z,1.83
2022-07-29T06:51:28.434Z,2.42
2022-07-29T06:54:02.136Z,1.50
2022-07-29T06:56:38.685Z,2.60
2022-07-29T06:59:12.060Z,1.88
2022-07-29T07:01:42.745Z,1.80
2022-07-29T07:04:12.536Z,1.77
2022-07-29T07:06:43.083Z,2.38
2022-07-29T07:09:12.332Z,2.65
2022-07-29T07:11:42.593Z,2.45
2022-07-29T07:14:13.394Z,1.77
2022-07-29T07:16:43.433Z,2.20
2022-07-29T07:19:14.201Z,2.22
2022-07-29T07:21:43.169Z,2.15
2022-07-29T07:24:12.076Z,1.95
2022-07-29T07:26:41.314Z,6.43
2022-07-29T07:29:11.441Z,3.58
2022-07-29T07:31:40.997Z,2.83
2022-07-29T07:34:09.591Z,2.45
2022-07-29T07:36:38.681Z,2.58
2022-07-29T07:39:07.999Z,2.22
2022-07-29T07:41:37.129Z,2.58
2022-07-29T07:44:07.201Z,2.90
2022-07-29T07:46:35.594Z,2.20
2022-07-29T07:49:04.862Z,3.28
2022-07-29T07:51:34.442Z,2.75
2022-07-29T07:54:03.924Z,2.95
2022-07-29T07:56:36.751Z,2.75
2022-07-29T07:59:06.539Z,2.67
2022-07-29T08:01:49.976Z,2.40
2022-07-29T08:04:28.430Z,2.95
2022-07-29T08:06:58.625Z,2.63
2022-07-29T08:09:30.067Z,2.40
2022-07-29T08:11:59.767Z,3.03
2022-07-29T08:14:29.901Z,2.83
2022-07-29T08:16:58.465Z,2.78
2022-07-29T08:19:27.292Z,2.55
2022-07-29T08:21:56.092Z,2.28
2022-07-29T08:24:42.740Z,3.15
2022-07-29T08:27:40.663Z,2.35
2022-07-29T08:30:01.468Z,4.00
2022-07-29T08:32:53.770Z,4.18
2022-07-29T08:35:24.158Z,3.50
2022-07-29T08:37:53.350Z,2.67
2022-07-29T08:40:32.298Z,2.67
2022-07-29T08:43:08.247Z,2.47
2022-07-29T08:45:44.756Z,3.03
2022-07-29T08:48:18.053Z,2.30
2022-07-29T08:50:47.293Z,2.40
2022-07-29T08:53:17.050Z,2.70
2022-07-29T08:55:46.250Z,3.20
2022-07-29T08:58:15.766Z,2.53
2022-07-29T09:00:51.312Z,2.58
2022-07-29T09:03:31.972Z,2.53
2022-07-29T09:06:02.765Z,2.58
2022-07-29T09:08:35.761Z,2.97
2022-07-29T09:11:07.896Z,2.90
2022-07-29T09:13:37.115Z,2.85
2022-07-29T09:16:09.587Z,2.85
2022-07-29T09:18:42.819Z,3.30
2022-07-29T09:21:30.577Z,2.20
2022-07-29T09:24:09.523Z,2.45
2022-07-29T09:26:39.419Z,3.22
2022-07-29T09:29:13.148Z,4.40
2022-07-29T09:31:42.798Z,3.22
2022-07-29T09:34:12.433Z,3.33
2022-07-29T09:36:44.952Z,3.85
2022-07-29T09:39:14.024Z,3.75
2022-07-29T09:41:48.812Z,3.30
2022-07-29T09:44:18.120Z,3.65
2022-07-29T09:46:56.340Z,2.83
2022-07-29T09:49:25.585Z,3.53
2022-07-29T09:52:08.979Z,3.50
2022-07-29T09:54:42.759Z,3.47
2022-07-29T09:57:30.966Z,3.08
2022-07-29T10:00:22.744Z,3.17
2022-07-29T10:03:10.439Z,3.13
2022-07-29T10:05:43.035Z,3.15
2022-07-29T10:08:13.400Z,3.70
2022-07-29T10:10:43.754Z,3.75
2022-07-29T10:13:15.704Z,3.78
2022-07-29T10:15:47.316Z,4.07
2022-07-29T10:18:18.478Z,4.65
2022-07-29T10:20:47.806Z,4.47
2022-07-29T10:23:16.508Z,3.72
2022-07-29T10:25:47.553Z,3.35
2022-07-29T10:28:19.854Z,3.90
2022-07-29T10:30:48.944Z,3.88
2022-07-29T10:33:53.922Z,3.47
2022-07-29T10:36:22.302Z,4.13
2022-07-29T10:39:03.290Z,3.10
2022-07-29T10:41:43.565Z,3.30
2022-07-29T10:44:17.430Z,2.75
2022-07-29T10:46:47.783Z,3.70
2022-07-29T10:49:18.155Z,2.72
2022-07-29T10:51:52.557Z,2.63
2022-07-29T10:54:42.234Z,3.08
2022-07-29T10:57:53.904Z,2.45
2022-07-29T11:00:19.644Z,2.90
2022-07-29T11:02:54.402Z,2.85
2022-07-29T11:05:24.779Z,3.47
2022-07-29T11:08:19.560Z,2.80
2022-07-29T11:10:50.275Z,2.58
2022-07-29T11:13:41.260Z,2.35
2022-07-29T11:16:11.466Z,2.25
2022-07-29T11:19:05.584Z,2.63
2022-07-29T11:21:54.008Z,2.70
2022-07-29T11:24:30.247Z,2.47
2022-07-29T11:27:31.022Z,2.20
2022-07-29T11:30:03.438Z,2.33
2022-07-29T11:32:40.882Z,3.17
2022-07-29T11:35:17.331Z,2.30
2022-07-29T11:38:09.649Z,2.88
2022-07-29T11:40:39.354Z,2.38
2022-07-29T11:43:10.886Z,2.15
2022-07-29T11:45:48.917Z,2.78
2022-07-29T11:48:29.937Z,2.58
2022-07-29T11:51:01.530Z,1.92
2022-07-29T11:53:32.922Z,1.92
2022-07-29T11:56:03.450Z,1.88
2022-07-29T11:58:33.821Z,1.50
2022-07-29T12:01:04.871Z,2.47
2022-07-29T12:04:03.979Z,2.08
2022-07-29T12:06:36.335Z,2.33
2022-07-29T12:09:14.393Z,1.50
2022-07-29T12:11:47.335Z,1.80
2022-07-29T12:14:30.162Z,1.67
2022-07-29T12:16:59.755Z,2.20
2022-07-29T12:19:29.613Z,1.98
2022-07-29T12:22:00.958Z,2.00
2022-07-29T12:24:44.978Z,1.55
2022-07-29T12:27:13.909Z,1.73
2022-07-29T12:29:47.959Z,2.03
2022-07-29T12:32:20.073Z,1.88
2022-07-29T12:35:04.086Z,1.85
2022-07-29T12:37:41.195Z,1.85
2022-07-29T12:40:13.640Z,1.50
2022-07-29T12:43:07.118Z,1.83
2022-07-29T12:45:38.840Z,1.80
2022-07-29T12:48:09.563Z,1.60
2022-07-29T12:50:53.685Z,2.13
2022-07-29T12:53:22.644Z,1.75
2022-07-29T12:56:07.989Z,1.92
2022-07-29T12:58:53.812Z,2.15
2022-07-29T13:01:23.508Z,2.08
2022-07-29T13:03:58.061Z,1.85
2022-07-29T13:06:41.219Z,2.05
2022-07-29T13:09:18.934Z,2.15
2022-07-29T13:11:56.188Z,2.47
2022-07-29T13:14:38.943Z,1.35
2022-07-29T13:17:19.223Z,1.25
2022-07-29T13:19:55.739Z,1.33
2022-07-29T13:22:25.588Z,1.27
2022-07-29T13:24:54.370Z,1.10
2022-07-29T13:27:24.366Z,1.45
2022-07-29T13:29:53.458Z,0.98
2022-07-29T13:32:28.376Z,1.50
2022-07-29T13:34:58.631Z,1.48
2022-07-29T13:37:30.389Z,1.50
2022-07-29T13:40:00.142Z,1.42
2022-07-29T13:42:30.949Z,1.25
2022-07-29T13:45:01.076Z,1.73
2022-07-29T13:47:33.548Z,1.20
2022-07-29T13:50:02.680Z,1.70
2022-07-29T13:52:33.351Z,1.98
2022-07-29T13:55:11.558Z,2.28
2022-07-29T13:58:01.669Z,1.90
2022-07-29T14:00:38.807Z,1.45
2022-07-29T14:03:22.865Z,1.23
2022-07-29T14:06:05.837Z,1.58
2022-07-29T14:08:37.473Z,1.30
2022-07-29T14:11:07.330Z,1.60
2022-07-29T14:13:39.252Z,1.67
2022-07-29T14:16:14.643Z,1.63
2022-07-29T14:18:45.855Z,2.03
2022-07-29T14:21:14.470Z,1.40
2022-07-29T14:23:47.043Z,1.30
2022-07-29T14:26:21.683Z,1.60
2022-07-29T14:29:02.749Z,1.33
2022-07-29T14:31:34.245Z,1.50
2022-07-29T14:34:06.141Z,2.08
2022-07-29T14:36:37.002Z,2.00
2022-07-29T14:39:14.397Z,1.60
2022-07-29T14:41:43.426Z,1.55
2022-07-29T14:44:13.281Z,1.40
2022-07-29T14:46:43.953Z,1.50
2022-07-29T14:49:16.800Z,1.40
2022-07-29T14:51:45.477Z,1.17
2022-07-29T14:54:15.921Z,1.70
2022-07-29T14:56:46.939Z,1.30
2022-07-29T14:59:17.057Z,1.48
2022-07-29T15:01:50.862Z,1.20
2022-07-29T15:04:20.240Z,0.80
2022-07-29T15:06:55.363Z,0.88
2022-07-29T15:09:24.718Z,1.17
2022-07-29T15:11:58.482Z,1.13
2022-07-29T15:14:28.044Z,0.98
2022-07-29T15:16:56.708Z,1.00
2022-07-29T15:19:26.082Z,0.70
2022-07-29T15:21:59.822Z,1.13
2022-07-29T15:24:29.103Z,0.85
2022-07-29T15:26:59.833Z,1.00
2022-07-29T15:29:30.340Z,1.40
2022-07-29T15:31:58.965Z,1.00
2022-07-29T15:34:29.895Z,0.95
2022-07-29T15:36:59.081Z,1.17
2022-07-29T15:39:35.759Z,1.13
2022-07-29T15:42:04.600Z,1.00
2022-07-29T15:44:34.339Z,1.08
2022-07-29T15:47:07.217Z,0.90
2022-07-29T15:49:47.214Z,2.40
2022-07-29T15:52:18.796Z,1.38
2022-07-29T15:54:48.209Z,1.17
2022-07-29T15:57:18.575Z,1.38
2022-07-29T15:59:49.489Z,1.05
2022-07-29T16:02:19.991Z,0.95
2022-07-29T16:04:50.083Z,1.80
2022-07-29T16:07:19.246Z,0.85
2022-07-29T16:09:52.644Z,1.20
2022-07-29T16:12:23.024Z,1.25
2022-07-29T16:14:52.058Z,1.00
2022-07-29T16:17:21.802Z,0.93
2022-07-29T16:19:50.648Z,0.93
2022-07-29T16:22:21.096Z,0.80
2022-07-29T16:24:54.533Z,1.23
2022-07-29T16:27:26.989Z,0.80
2022-07-29T16:30:05.250Z,1.10
2022-07-29T16:32:51.968Z,0.95
2022-07-29T16:35:21.369Z,0.90
2022-07-29T16:37:51.083Z,1.35
2022-07-29T16:40:19.611Z,1.67
2022-07-29T16:42:50.822Z,1.05
2022-07-29T16:45:21.249Z,1.20
2022-07-29T16:47:51.638Z,1.35
2022-07-29T16:50:21.263Z,1.25
2022-07-29T16:52:52.193Z,0.93
2022-07-29T16:55:21.319Z,1.35
2022-07-29T16:57:50.017Z,1.00
2022-07-29T17:00:19.730Z,1.30
2022-07-29T17:03:03.682Z,0.60
2022-07-29T17:05:50.765Z,1.30
2022-07-29T17:08:21.902Z,1.23
2022-07-29T17:10:50.711Z,1.10
2022-07-29T17:13:22.415Z,1.77
2022-07-29T17:15:52.199Z,0.77
2022-07-29T17:18:22.752Z,1.15
2022-07-29T17:20:55.133Z,1.20
2022-07-29T17:23:24.126Z,1.30
2022-07-29T17:25:53.758Z,1.23
2022-07-29T17:28:22.645Z,1.15
2022-07-29T17:30:51.033Z,1.08
2022-07-29T17:33:22.584Z,1.15
2022-07-29T17:36:10.258Z,1.17
2022-07-29T17:38:40.133Z,1.13
2022-07-29T17:41:09.826Z,1.20
2022-07-29T17:43:42.669Z,1.60
2022-07-29T17:46:13.194Z,1.17
2022-07-29T17:48:43.822Z,0.93
2022-07-29T17:51:12.277Z,1.00
2022-07-29T17:53:41.499Z,1.77
2022-07-29T17:56:10.769Z,1.20
2022-07-29T17:58:39.524Z,1.52
2022-07-29T18:01:09.856Z,2.50
2022-07-29T18:03:41.301Z,1.20
2022-07-29T18:06:19.212Z,1.60
2022-07-29T18:08:58.318Z,1.23
2022-07-29T18:11:32.446Z,1.52
2022-07-29T18:14:02.375Z,1.45
2022-07-29T18:16:34.061Z,0.85
2022-07-29T18:19:03.041Z,0.98
2022-07-29T18:21:37.578Z,1.10
2022-07-29T18:24:14.505Z,0.90
2022-07-29T18:26:47.579Z,1.40
2022-07-29T18:29:16.664Z,1.55
2022-07-29T18:31:46.007Z,1.50
2022-07-29T18:34:14.984Z,1.08
2022-07-29T18:36:45.671Z,1.65
2022-07-29T18:39:20.597Z,1.25
2022-07-29T18:41:51.511Z,1.10
2022-07-29T18:44:22.011Z,1.42
2022-07-29T18:46:52.656Z,1.10
2022-07-29T18:49:21.974Z,1.33
2022-07-29T18:51:51.551Z,1.30
2022-07-29T18:54:19.906Z,1.10
2022-07-29T18:56:48.434Z,1.20
2022-07-29T18:59:20.137Z,1.00
2022-07-29T19:01:49.440Z,1.10
2022-07-29T19:04:18.460Z,1.08
2022-07-29T19:06:47.395Z,1.50
2022-07-29T19:09:17.896Z,1.33
2022-07-29T19:11:47.189Z,1.00
2022-07-29T19:14:15.509Z,2.78
2022-07-29T19:16:46.688Z,10.98
2022-07-29T19:19:16.001Z,12.45
2022-07-29T19:21:47.359Z,2.58
2022-07-29T19:24:17.584Z,1.85
2022-07-29T19:26:47.491Z,1.65
2022-07-29T19:29:18.020Z,1.42
2022-07-29T19:31:46.504Z,2.00
2022-07-29T19:34:18.619Z,1.30
2022-07-29T19:36:49.711Z,1.73
2022-07-29T19:39:18.495Z,1.45
2022-07-29T19:42:05.513Z,1.85
2022-07-29T19:44:37.760Z,1.55
2022-07-29T19:47:09.161Z,1.70
2022-07-29T19:49:39.366Z,1.33
2022-07-29T19:52:09.496Z,1.30
2022-07-29T19:54:38.702Z,1.88
2022-07-29T19:57:08.388Z,1.98
2022-07-29T19:59:37.829Z,1.77
2022-07-29T20:02:09.921Z,5.05
2022-07-29T20:04:39.359Z,5.40
2022-07-29T20:07:08.042Z,14.48
2022-07-29T20:09:42.971Z,6.00
2022-07-29T20:12:12.752Z,2.50
2022-07-29T20:14:41.145Z,1.85
2022-07-29T20:17:11.168Z,2.10
2022-07-29T20:19:40.546Z,1.67
2022-07-29T20:22:09.706Z,1.98
2022-07-29T20:24:40.048Z,1.60
2022-07-29T20:27:13.683Z,1.80
2022-07-29T20:29:42.873Z,1.73
2022-07-29T20:32:12.434Z,2.05
2022-07-29T20:34:41.915Z,1.63
2022-07-29T20:37:11.350Z,1.90
2022-07-29T20:39:42.621Z,2.10
2022-07-29T20:42:12.460Z,1.67
2022-07-29T20:44:40.917Z,1.77
2022-07-29T20:47:10.258Z,2.05
2022-07-29T20:49:39.237Z,2.28
2022-07-29T20:52:08.541Z,1.75
2022-07-29T20:54:38.242Z,1.65
2022-07-29T20:57:10.318Z,1.55
2022-07-29T20:59:45.771Z,1.85
2022-07-29T21:02:17.278Z,2.28
2022-07-29T21:04:47.605Z,2.03
2022-07-29T21:07:16.021Z,2.10
2022-07-29T21:09:45.302Z,2.20
2022-07-29T21:12:15.648Z,1.83
2022-07-29T21:14:52.807Z,2.00
2022-07-29T21:17:23.884Z,1.65
2022-07-29T21:19:55.346Z,2.05
2022-07-29T21:22:24.715Z,1.83
2022-07-29T21:24:53.278Z,1.52
2022-07-29T21:27:41.100Z,1.65
2022-07-29T21:30:10.479Z,2.30
2022-07-29T21:32:42.380Z,2.05
2022-07-29T21:35:23.363Z,1.90
2022-07-29T21:38:01.153Z,1.92
2022-07-29T21:40:30.868Z,2.08
2022-07-29T21:43:04.481Z,2.17
2022-07-29T21:45:34.552Z,2.20
2022-07-29T21:48:07.776Z,2.00
2022-07-29T21:50:37.640Z,1.90
2022-07-29T21:53:07.516Z,1.70
2022-07-29T21:55:40.764Z,2.57
2022-07-29T21:58:11.041Z,1.80
2022-07-29T22:00:39.697Z,1.85
2022-07-29T22:03:20.610Z,2.28
2022-07-29T22:05:49.068Z,2.10
2022-07-29T22:08:17.906Z,1.70
2022-07-29T22:10:48.183Z,2.63
2022-07-29T22:13:17.062Z,2.00
2022-07-29T22:15:48.237Z,1.92
2022-07-29T22:18:20.727Z,1.85
2022-07-29T22:20:50.595Z,2.72
2022-07-29T22:23:19.418Z,1.85
2022-07-29T22:25:49.452Z,2.20
2022-07-29T22:28:19.186Z,1.98
2022-07-29T22:30:48.006Z,2.40
2022-07-29T22:33:22.380Z,2.00
2022-07-29T22:35:50.813Z,1.60
2022-07-29T22:38:20.702Z,3.47
2022-07-29T22:40:51.275Z,2.00
2022-07-29T22:43:20.099Z,2.00
2022-07-29T22:45:50.659Z,1.80
2022-07-29T22:48:20.541Z,1.70
2022-07-29T22:50:48.877Z,1.88
2022-07-29T22:53:18.637Z,2.03
2022-07-29T22:55:47.150Z,2.08
2022-07-29T22:58:19.009Z,1.90
2022-07-29T23:00:49.287Z,1.80
2022-07-29T23:03:27.282Z,2.35
2022-07-29T23:05:56.233Z,2.08
2022-07-29T23:08:26.960Z,1.67
2022-07-29T23:10:56.469Z,1.80
2022-07-29T23:13:25.304Z,2.50
2022-07-29T23:15:54.869Z,2.00
2022-07-29T23:18:24.099Z,2.08
2022-07-29T23:20:52.608Z,2.10
2022-07-29T23:23:21.060Z,2.10
2022-07-29T23:25:50.377Z,2.17
2022-07-29T23:28:20.517Z,2.00
2022-07-29T23:30:50.857Z,2.00
2022-07-29T23:33:24.966Z,2.03
2022-07-29T23:35:54.175Z,1.70
2022-07-29T23:38:23.577Z,2.42
2022-07-29T23:40:52.781Z,2.30
2022-07-29T23:43:21.881Z,3.63
2022-07-29T23:45:50.804Z,2.33
2022-07-29T23:48:22.061Z,2.38
2022-07-29T23:50:50.522Z,2.65
2022-07-29T23:53:20.596Z,2.40
2022-07-29T23:55:49.066Z,1.90
2022-07-29T23:58:17.477Z,1.95
